sensor_id;sensor_type;location;lat;lon;timestamp;pressure;altitude;pressure_sealevel;temperature;humidity
50854;BME280;44154;45.506;-122.806;2022-07-23T00:00:04;100916.19;;;25.54;43.85
50854;BME280;44154;45.506;-122.806;2022-07-23T00:02:31;100916.19;;;25.54;43.78
50854;BME280;44154;45.506;-122.806;2022-07-23T00:04:57;100894.66;;;25.41;43.69
50854;BME280;44154;45.506;-122.806;2022-07-23T00:07:23;100908.22;;;25.53;43.63
50854;BME280;44154;45.506;-122.806;2022-07-23T00:09:49;100901.34;;;25.50;43.60
50854;BME280;44154;45.506;-122.806;2022-07-23T00:12:15;100905.78;;;25.56;43.35
50854;BME280;44154;45.506;-122.806;2022-07-23T00:14:41;100924.44;;;25.59;43.77
50854;BME280;44154;45.506;-122.806;2022-07-23T00:17:08;100907.47;;;25.62;43.55
50854;BME280;44154;45.506;-122.806;2022-07-23T00:19:34;100908.59;;;25.61;43.42
50854;BME280;44154;45.506;-122.806;2022-07-23T00:22:00;100910.22;;;25.62;43.23
50854;BME280;44154;45.506;-122.806;2022-07-23T00:24:26;100917.41;;;25.69;43.59
50854;BME280;44154;45.506;-122.806;2022-07-23T00:26:52;100901.50;;;25.66;43.43
50854;BME280;44154;45.506;-122.806;2022-07-23T00:29:18;100862.91;;;25.45;43.14
50854;BME280;44154;45.506;-122.806;2022-07-23T00:31:44;100861.56;;;25.48;42.99
50854;BME280;44154;45.506;-122.806;2022-07-23T00:34:10;100899.88;;;25.70;42.98
50854;BME280;44154;45.506;-122.806;2022-07-23T00:36:36;100890.00;;;25.69;43.21
50854;BME280;44154;45.506;-122.806;2022-07-23T00:39:03;100900.44;;;25.72;42.84
50854;BME280;44154;45.506;-122.806;2022-07-23T00:41:29;100901.78;;;25.69;43.28
50854;BME280;44154;45.506;-122.806;2022-07-23T00:44:10;100858.56;;;25.49;42.91
50854;BME280;44154;45.506;-122.806;2022-07-23T00:46:45;100908.22;;;25.80;43.27
50854;BME280;44154;45.506;-122.806;2022-07-23T00:49:12;100894.50;;;25.80;43.21
50854;BME280;44154;45.506;-122.806;2022-07-23T00:51:38;100901.88;;;25.79;42.80
50854;BME280;44154;45.506;-122.806;2022-07-23T00:54:04;100879.34;;;25.72;43.10
50854;BME280;44154;45.506;-122.806;2022-07-23T00:56:30;100896.41;;;25.79;42.75
50854;BME280;44154;45.506;-122.806;2022-07-23T00:58:57;100898.34;;;25.84;43.03
50854;BME280;44154;45.506;-122.806;2022-07-23T01:01:23;100898.34;;;25.84;43.00
50854;BME280;44154;45.506;-122.806;2022-07-23T01:03:49;100888.50;;;25.83;43.11
50854;BME280;44154;45.506;-122.806;2022-07-23T01:06:15;100898.41;;;25.89;42.87
50854;BME280;44154;45.506;-122.806;2022-07-23T01:08:42;100897.59;;;25.89;42.58
50854;BME280;44154;45.506;-122.806;2022-07-23T01:11:08;100883.00;;;25.83;42.76
50854;BME280;44154;45.506;-122.806;2022-07-23T01:13:35;100883.00;;;25.83;42.86
50854;BME280;44154;45.506;-122.806;2022-07-23T01:16:01;100896.47;;;25.90;42.89
50854;BME280;44154;45.506;-122.806;2022-07-23T01:18:27;100889.63;;;25.87;42.66
50854;BME280;44154;45.506;-122.806;2022-07-23T01:20:53;100878.59;;;25.82;42.83
50854;BME280;44154;45.506;-122.806;2022-07-23T01:23:19;100899.00;;;25.96;43.05
50854;BME280;44154;45.506;-122.806;2022-07-23T01:25:52;100897.34;;;25.95;42.54
50854;BME280;44154;45.506;-122.806;2022-07-23T01:28:18;100899.00;;;25.96;42.68
50854;BME280;44154;45.506;-122.806;2022-07-23T01:30:47;100889.97;;;25.96;42.58
50854;BME280;44154;45.506;-122.806;2022-07-23T01:33:14;100879.75;;;25.91;42.78
50854;BME280;44154;45.506;-122.806;2022-07-23T01:35:40;100891.09;;;26.00;42.59
50854;BME280;44154;45.506;-122.806;2022-07-23T01:38:06;100877.00;;;25.91;42.25
50854;BME280;44154;45.506;-122.806;2022-07-23T01:40:32;100867.16;;;25.90;42.12
50854;BME280;44154;45.506;-122.806;2022-07-23T01:42:59;100893.59;;;26.02;42.42
50854;BME280;44154;45.506;-122.806;2022-07-23T01:45:25;100880.34;;;25.93;42.27
50854;BME280;44154;45.506;-122.806;2022-07-23T01:47:51;100891.41;;;26.04;42.49
50854;BME280;44154;45.506;-122.806;2022-07-23T01:50:18;100893.06;;;26.05;42.52
50854;BME280;44154;45.506;-122.806;2022-07-23T01:52:44;100885.66;;;26.05;42.13
50854;BME280;44154;45.506;-122.806;2022-07-23T01:55:10;100869.91;;;25.95;42.19
50854;BME280;44154;45.506;-122.806;2022-07-23T01:57:36;100884.00;;;26.04;42.02
50854;BME280;44154;45.506;-122.806;2022-07-23T02:00:03;100880.44;;;26.04;41.88
50854;BME280;44154;45.506;-122.806;2022-07-23T02:02:29;100886.22;;;26.07;42.22
50854;BME280;44154;45.506;-122.806;2022-07-23T02:04:55;100843.22;;;25.80;42.23
50854;BME280;44154;45.506;-122.806;2022-07-23T02:07:21;100890.63;;;26.08;42.11
50854;BME280;44154;45.506;-122.806;2022-07-23T02:09:48;100878.78;;;26.03;41.98
50854;BME280;44154;45.506;-122.806;2022-07-23T02:12:14;100873.78;;;26.00;42.16
50854;BME280;44154;45.506;-122.806;2022-07-23T02:14:40;100882.38;;;26.08;42.27
50854;BME280;44154;45.506;-122.806;2022-07-23T02:17:06;100867.81;;;26.03;42.01
50854;BME280;44154;45.506;-122.806;2022-07-23T02:19:32;100881.56;;;26.08;42.08
50854;BME280;44154;45.506;-122.806;2022-07-23T02:21:59;100881.03;;;26.11;42.04
50854;BME280;44154;45.506;-122.806;2022-07-23T02:24:25;100876.09;;;26.08;41.83
50854;BME280;44154;45.506;-122.806;2022-07-23T02:26:51;100883.53;;;26.12;41.72
50854;BME280;44154;45.506;-122.806;2022-07-23T02:29:17;100878.25;;;26.06;41.58
50854;BME280;44154;45.506;-122.806;2022-07-23T02:31:44;100861.69;;;25.95;41.93
50854;BME280;44154;45.506;-122.806;2022-07-23T02:34:10;100836.13;;;25.85;41.82
50854;BME280;44154;45.506;-122.806;2022-07-23T02:36:38;100871.94;;;26.05;41.43
50854;BME280;44154;45.506;-122.806;2022-07-23T02:39:05;100885.72;;;26.10;41.52
50854;BME280;44154;45.506;-122.806;2022-07-23T02:41:31;100886.00;;;26.14;41.48
50854;BME280;44154;45.506;-122.806;2022-07-23T02:43:57;100888.19;;;26.12;41.40
50854;BME280;44154;45.506;-122.806;2022-07-23T02:46:23;100891.47;;;26.14;41.63
50854;BME280;44154;45.506;-122.806;2022-07-23T02:48:49;100890.94;;;26.12;41.70
50854;BME280;44154;45.506;-122.806;2022-07-23T02:51:15;100896.97;;;26.14;41.28
50854;BME280;44154;45.506;-122.806;2022-07-23T02:53:42;100882.63;;;26.02;41.42
50854;BME280;44154;45.506;-122.806;2022-07-23T02:56:08;100893.69;;;26.12;41.25
50854;BME280;44154;45.506;-122.806;2022-07-23T02:58:34;100895.84;;;26.10;41.09
50854;BME280;44154;45.506;-122.806;2022-07-23T03:01:00;100859.16;;;25.84;41.20
50854;BME280;44154;45.506;-122.806;2022-07-23T03:03:27;100903.00;;;26.11;41.22
50854;BME280;44154;45.506;-122.806;2022-07-23T03:05:53;100904.06;;;26.10;41.35
50854;BME280;44154;45.506;-122.806;2022-07-23T03:08:19;100894.22;;;26.09;41.20
50854;BME280;44154;45.506;-122.806;2022-07-23T03:10:45;100901.91;;;26.12;40.99
50854;BME280;44154;45.506;-122.806;2022-07-23T03:13:11;100899.69;;;26.09;41.10
50854;BME280;44154;45.506;-122.806;2022-07-23T03:15:37;100906.53;;;26.11;40.92
50854;BME280;44154;45.506;-122.806;2022-07-23T03:18:04;100912.28;;;26.10;41.19
50854;BME280;44154;45.506;-122.806;2022-07-23T03:20:30;100909.00;;;26.08;40.97
50854;BME280;44154;45.506;-122.806;2022-07-23T03:22:56;100913.44;;;26.14;41.21
50854;BME280;44154;45.506;-122.806;2022-07-23T03:25:22;100917.78;;;26.10;40.70
50854;BME280;44154;45.506;-122.806;2022-07-23T03:27:48;100908.69;;;26.04;40.59
50854;BME280;44154;45.506;-122.806;2022-07-23T03:30:14;100924.66;;;26.12;40.75
50854;BME280;44154;45.506;-122.806;2022-07-23T03:32:41;100887.97;;;25.86;40.59
50854;BME280;44154;45.506;-122.806;2022-07-23T03:35:07;100933.16;;;26.11;40.13
50854;BME280;44154;45.506;-122.806;2022-07-23T03:37:33;100926.53;;;26.07;40.68
50854;BME280;44154;45.506;-122.806;2022-07-23T03:40:00;100928.75;;;26.10;40.63
50854;BME280;44154;45.506;-122.806;2022-07-23T03:42:27;100942.81;;;26.19;40.79
50854;BME280;44154;45.506;-122.806;2022-07-23T03:44:53;100943.66;;;26.19;40.97
50854;BME280;44154;45.506;-122.806;2022-07-23T03:47:19;100943.06;;;26.17;41.03
50854;BME280;44154;45.506;-122.806;2022-07-23T03:49:48;100933.72;;;26.13;40.75
50854;BME280;44154;45.506;-122.806;2022-07-23T03:52:14;100922.72;;;26.08;40.94
50854;BME280;44154;45.506;-122.806;2022-07-23T03:54:40;100950.81;;;26.25;40.98
50854;BME280;44154;45.506;-122.806;2022-07-23T03:57:06;100926.25;;;26.03;40.84
50854;BME280;44154;45.506;-122.806;2022-07-23T03:59:33;100956.03;;;26.27;40.97
50854;BME280;44154;45.506;-122.806;2022-07-23T04:01:59;100959.06;;;26.25;40.97
50854;BME280;44154;45.506;-122.806;2022-07-23T04:04:25;100918.84;;;26.04;41.04
50854;BME280;44154;45.506;-122.806;2022-07-23T04:06:51;100961.00;;;26.30;41.44
50854;BME280;44154;45.506;-122.806;2022-07-23T04:09:17;100944.72;;;26.18;41.16
50854;BME280;44154;45.506;-122.806;2022-07-23T04:11:43;100972.28;;;26.34;41.30
50854;BME280;44154;45.506;-122.806;2022-07-23T04:14:09;100960.19;;;26.29;41.09
50854;BME280;44154;45.506;-122.806;2022-07-23T04:16:36;100955.50;;;26.25;41.13
50854;BME280;44154;45.506;-122.806;2022-07-23T04:19:02;100978.06;;;26.37;41.12
50854;BME280;44154;45.506;-122.806;2022-07-23T04:21:30;100971.16;;;26.29;41.34
50854;BME280;44154;45.506;-122.806;2022-07-23T04:23:56;100984.41;;;26.38;41.50
50854;BME280;44154;45.506;-122.806;2022-07-23T04:26:22;100970.38;;;26.34;41.16
50854;BME280;44154;45.506;-122.806;2022-07-23T04:28:48;100978.91;;;26.38;41.43
50854;BME280;44154;45.506;-122.806;2022-07-23T04:31:14;100981.41;;;26.39;41.07
50854;BME280;44154;45.506;-122.806;2022-07-23T04:33:40;100985.50;;;26.42;41.25
50854;BME280;44154;45.506;-122.806;2022-07-23T04:36:07;100987.16;;;26.43;41.17
50854;BME280;44154;45.506;-122.806;2022-07-23T04:38:33;100986.88;;;26.39;41.41
50854;BME280;44154;45.506;-122.806;2022-07-23T04:40:59;100990.19;;;26.41;41.21
50854;BME280;44154;45.506;-122.806;2022-07-23T04:43:26;100996.81;;;26.45;41.18
50854;BME280;44154;45.506;-122.806;2022-07-23T04:45:52;100986.56;;;26.36;41.20
50854;BME280;44154;45.506;-122.806;2022-07-23T04:48:19;101002.28;;;26.45;41.57
50854;BME280;44154;45.506;-122.806;2022-07-23T04:50:45;100989.31;;;26.36;41.35
50854;BME280;44154;45.506;-122.806;2022-07-23T04:53:11;100994.84;;;26.41;41.46
50854;BME280;44154;45.506;-122.806;2022-07-23T04:55:37;101006.13;;;26.44;41.29
50854;BME280;44154;45.506;-122.806;2022-07-23T04:58:03;101005.31;;;26.49;41.25
50854;BME280;44154;45.506;-122.806;2022-07-23T05:00:29;101011.06;;;26.47;41.08
50854;BME280;44154;45.506;-122.806;2022-07-23T05:02:55;101017.09;;;26.44;41.14
50854;BME280;44154;45.506;-122.806;2022-07-23T05:05:21;101010.81;;;26.49;41.41
50854;BME280;44154;45.506;-122.806;2022-07-23T05:07:48;101016.00;;;26.45;41.31
50854;BME280;44154;45.506;-122.806;2022-07-23T05:10:14;101004.47;;;26.43;41.31
50854;BME280;44154;45.506;-122.806;2022-07-23T05:12:40;101025.38;;;26.49;41.53
50854;BME280;44154;45.506;-122.806;2022-07-23T05:15:06;101022.91;;;26.48;41.03
50854;BME280;44154;45.506;-122.806;2022-07-23T05:17:32;101027.84;;;26.51;41.47
50854;BME280;44154;45.506;-122.806;2022-07-23T05:19:58;101022.38;;;26.51;41.34
50854;BME280;44154;45.506;-122.806;2022-07-23T05:22:25;101015.69;;;26.42;41.33
50854;BME280;44154;45.506;-122.806;2022-07-23T05:24:51;101035.00;;;26.52;41.28
50854;BME280;44154;45.506;-122.806;2022-07-23T05:27:17;101034.16;;;26.52;41.43
50854;BME280;44154;45.506;-122.806;2022-07-23T05:29:43;101028.69;;;26.52;41.32
50854;BME280;44154;45.506;-122.806;2022-07-23T05:32:09;101039.38;;;26.53;41.07
50854;BME280;44154;45.506;-122.806;2022-07-23T05:34:35;101025.06;;;26.46;41.15
50854;BME280;44154;45.506;-122.806;2022-07-23T05:37:01;101036.34;;;26.49;41.14
50854;BME280;44154;45.506;-122.806;2022-07-23T05:39:27;101040.50;;;26.52;41.38
50854;BME280;44154;45.506;-122.806;2022-07-23T05:41:53;101038.56;;;26.53;41.15
50854;BME280;44154;45.506;-122.806;2022-07-23T05:44:20;101027.25;;;26.44;41.33
50854;BME280;44154;45.506;-122.806;2022-07-23T05:46:46;101032.75;;;26.44;41.19
50854;BME280;44154;45.506;-122.806;2022-07-23T05:49:12;101040.19;;;26.48;41.28
50854;BME280;44154;45.506;-122.806;2022-07-23T05:51:38;101030.81;;;26.44;41.24
50854;BME280;44154;45.506;-122.806;2022-07-23T05:54:05;101042.97;;;26.54;41.03
50854;BME280;44154;45.506;-122.806;2022-07-23T05:56:31;101048.47;;;26.54;41.12
50854;BME280;44154;45.506;-122.806;2022-07-23T05:58:57;101037.44;;;26.48;41.09
50854;BME280;44154;45.506;-122.806;2022-07-23T06:01:23;100997.47;;;26.25;41.06
50854;BME280;44154;45.506;-122.806;2022-07-23T06:03:49;101032.22;;;26.47;41.37
50854;BME280;44154;45.506;-122.806;2022-07-23T06:06:15;101046.81;;;26.53;41.08
50854;BME280;44154;45.506;-122.806;2022-07-23T06:08:41;101033.88;;;26.48;41.15
50854;BME280;44154;45.506;-122.806;2022-07-23T06:11:07;101020.03;;;26.33;41.14
50854;BME280;44154;45.506;-122.806;2022-07-23T06:13:33;101046.00;;;26.52;41.01
50854;BME280;44154;45.506;-122.806;2022-07-23T06:16:00;101023.38;;;26.40;41.48
50854;BME280;44154;45.506;-122.806;2022-07-23T06:18:26;101049.81;;;26.51;41.34
50854;BME280;44154;45.506;-122.806;2022-07-23T06:20:52;101037.69;;;26.47;41.09
50854;BME280;44154;45.506;-122.806;2022-07-23T06:23:18;101041.53;;;26.46;41.37
50854;BME280;44154;45.506;-122.806;2022-07-23T06:25:44;101046.25;;;26.51;40.84
50854;BME280;44154;45.506;-122.806;2022-07-23T06:28:10;101047.88;;;26.52;40.93
50854;BME280;44154;45.506;-122.806;2022-07-23T06:30:37;101050.63;;;26.52;41.24
50854;BME280;44154;45.506;-122.806;2022-07-23T06:33:03;101040.38;;;26.42;41.26
50854;BME280;44154;45.506;-122.806;2022-07-23T06:35:29;101049.75;;;26.46;40.88
50854;BME280;44154;45.506;-122.806;2022-07-23T06:37:55;101053.38;;;26.52;41.21
50854;BME280;44154;45.506;-122.806;2022-07-23T06:40:22;101051.97;;;26.49;41.00
50854;BME280;44154;45.506;-122.806;2022-07-23T06:42:48;101044.81;;;26.43;41.43
50854;BME280;44154;45.506;-122.806;2022-07-23T06:45:14;101065.69;;;26.49;41.21
50854;BME280;44154;45.506;-122.806;2022-07-23T06:47:40;101065.69;;;26.49;41.40
50854;BME280;44154;45.506;-122.806;2022-07-23T06:50:07;101048.06;;;26.40;41.05
50854;BME280;44154;45.506;-122.806;2022-07-23T06:52:33;101063.47;;;26.46;40.94
50854;BME280;44154;45.506;-122.806;2022-07-23T06:55:00;101057.97;;;26.41;41.11
50854;BME280;44154;45.506;-122.806;2022-07-23T06:57:26;101063.47;;;26.46;41.00
50854;BME280;44154;45.506;-122.806;2022-07-23T06:59:52;101065.97;;;26.47;40.95
50854;BME280;44154;45.506;-122.806;2022-07-23T07:02:19;101071.44;;;26.47;40.84
50854;BME280;44154;45.506;-122.806;2022-07-23T07:04:45;101069.56;;;26.48;40.94
50854;BME280;44154;45.506;-122.806;2022-07-23T07:07:11;101064.00;;;26.43;40.88
50854;BME280;44154;45.506;-122.806;2022-07-23T07:09:38;101054.09;;;26.37;41.02
50854;BME280;44154;45.506;-122.806;2022-07-23T07:12:04;101073.66;;;26.45;41.37
50854;BME280;44154;45.506;-122.806;2022-07-23T07:14:31;101064.59;;;26.45;41.03
50854;BME280;44154;45.506;-122.806;2022-07-23T07:16:57;101057.97;;;26.41;41.14
50854;BME280;44154;45.506;-122.806;2022-07-23T07:19:23;101067.84;;;26.42;41.19
50854;BME280;44154;45.506;-122.806;2022-07-23T07:21:49;101067.03;;;26.41;41.09
50854;BME280;44154;45.506;-122.806;2022-07-23T07:24:15;101061.75;;;26.35;40.96
50854;BME280;44154;45.506;-122.806;2022-07-23T07:26:41;101078.59;;;26.43;40.98
50854;BME280;44154;45.506;-122.806;2022-07-23T07:29:07;101076.06;;;26.42;40.85
50854;BME280;44154;45.506;-122.806;2022-07-23T07:31:34;101079.66;;;26.42;41.24
50854;BME280;44154;45.506;-122.806;2022-07-23T07:34:00;101070.03;;;26.40;41.04
50854;BME280;44154;45.506;-122.806;2022-07-23T07:36:26;101067.22;;;26.35;40.94
50854;BME280;44154;45.506;-122.806;2022-07-23T07:38:52;101066.41;;;26.34;40.81
50854;BME280;44154;45.506;-122.806;2022-07-23T07:41:18;101073.03;;;26.38;40.64
50854;BME280;44154;45.506;-122.806;2022-07-23T07:43:48;101076.59;;;26.39;41.08
50854;BME280;44154;45.506;-122.806;2022-07-23T07:46:14;101071.38;;;26.37;41.08
50854;BME280;44154;45.506;-122.806;2022-07-23T07:48:40;101074.38;;;26.36;40.79
50854;BME280;44154;45.506;-122.806;2022-07-23T07:51:07;101072.41;;;26.31;40.79
50854;BME280;44154;45.506;-122.806;2022-07-23T07:53:33;101074.91;;;26.33;41.08
50854;BME280;44154;45.506;-122.806;2022-07-23T07:55:59;101083.69;;;26.35;40.80
50854;BME280;44154;45.506;-122.806;2022-07-23T07:58:25;101067.75;;;26.31;41.10
50854;BME280;44154;45.506;-122.806;2022-07-23T08:00:51;101081.78;;;26.35;40.71
50854;BME280;44154;45.506;-122.806;2022-07-23T08:03:17;101074.34;;;26.30;41.00
50854;BME280;44154;45.506;-122.806;2022-07-23T08:05:44;101065.50;;;26.23;41.05
50854;BME280;44154;45.506;-122.806;2022-07-23T08:08:10;101071.53;;;26.25;41.05
50854;BME280;44154;45.506;-122.806;2022-07-23T08:10:41;101078.47;;;26.33;40.61
50854;BME280;44154;45.506;-122.806;2022-07-23T08:13:07;101065.50;;;26.23;41.01
50854;BME280;44154;45.506;-122.806;2022-07-23T08:15:33;101054.41;;;26.13;40.92
50854;BME280;44154;45.506;-122.806;2022-07-23T08:17:59;101080.91;;;26.29;40.82
50854;BME280;44154;45.506;-122.806;2022-07-23T08:20:26;101069.31;;;26.22;40.77
50854;BME280;44154;45.506;-122.806;2022-07-23T08:23:06;101075.69;;;26.28;40.65
50854;BME280;44154;45.506;-122.806;2022-07-23T08:25:42;101072.94;;;26.28;40.98
50854;BME280;44154;45.506;-122.806;2022-07-23T08:28:10;101079.50;;;26.27;40.83
50854;BME280;44154;45.506;-122.806;2022-07-23T08:30:38;101073.47;;;26.25;40.87
50854;BME280;44154;45.506;-122.806;2022-07-23T08:33:07;101073.22;;;26.26;40.93
50854;BME280;44154;45.506;-122.806;2022-07-23T08:35:45;101069.63;;;26.26;40.63
50854;BME280;44154;45.506;-122.806;2022-07-23T08:38:17;101071.00;;;26.23;40.89
50854;BME280;44154;45.506;-122.806;2022-07-23T08:40:47;101064.66;;;26.23;40.70
50854;BME280;44154;45.506;-122.806;2022-07-23T08:43:18;101069.06;;;26.24;40.88
50854;BME280;44154;45.506;-122.806;2022-07-23T08:45:47;101063.84;;;26.22;40.57
50854;BME280;44154;45.506;-122.806;2022-07-23T08:48:19;101046.44;;;26.11;40.76
50854;BME280;44154;45.506;-122.806;2022-07-23T08:50:47;101058.34;;;26.22;40.92
50854;BME280;44154;45.506;-122.806;2022-07-23T08:53:15;101067.66;;;26.21;41.13
50854;BME280;44154;45.506;-122.806;2022-07-23T08:55:45;101072.59;;;26.19;40.66
50854;BME280;44154;45.506;-122.806;2022-07-23T08:58:12;101069.00;;;26.19;40.81
50854;BME280;44154;45.506;-122.806;2022-07-23T09:00:38;101062.63;;;26.13;40.64
50854;BME280;44154;45.506;-122.806;2022-07-23T09:03:04;101077.50;;;26.17;41.10
50854;BME280;44154;45.506;-122.806;2022-07-23T09:05:30;101068.13;;;26.13;40.69
50854;BME280;44154;45.506;-122.806;2022-07-23T09:08:07;101075.84;;;26.16;40.94
50854;BME280;44154;45.506;-122.806;2022-07-23T09:18:45;101078.00;;;26.14;40.49
50854;BME280;44154;45.506;-122.806;2022-07-23T09:21:47;101068.09;;;26.08;40.69
50854;BME280;44154;45.506;-122.806;2022-07-23T09:26:38;101072.72;;;26.07;40.92
50854;BME280;44154;45.506;-122.806;2022-07-23T09:29:18;101083.19;;;26.10;40.51
50854;BME280;44154;45.506;-122.806;2022-07-23T09:31:47;101082.94;;;26.12;40.90
50854;BME280;44154;45.506;-122.806;2022-07-23T09:34:18;101066.63;;;26.00;40.54
50854;BME280;44154;45.506;-122.806;2022-07-23T09:36:45;101077.91;;;26.04;40.62
50854;BME280;44154;45.506;-122.806;2022-07-23T09:39:13;101069.03;;;25.96;40.74
50854;BME280;44154;45.506;-122.806;2022-07-23T09:41:42;101080.13;;;26.07;40.64
50854;BME280;44154;45.506;-122.806;2022-07-23T09:44:14;101088.38;;;26.07;40.89
50854;BME280;44154;45.506;-122.806;2022-07-23T09:46:43;101091.38;;;26.05;40.86
50854;BME280;44154;45.506;-122.806;2022-07-23T09:54:22;101084.47;;;26.03;40.74
50854;BME280;44154;45.506;-122.806;2022-07-23T09:56:51;101092.38;;;25.99;40.90
50854;BME280;44154;45.506;-122.806;2022-07-23T09:59:18;101093.19;;;26.00;40.51
50854;BME280;44154;45.506;-122.806;2022-07-23T10:01:48;101102.03;;;26.02;40.48
50854;BME280;44154;45.506;-122.806;2022-07-23T10:04:15;101092.06;;;25.95;40.56
50854;BME280;44154;45.506;-122.806;2022-07-23T10:06:43;101094.22;;;25.93;40.68
50854;BME280;44154;45.506;-122.806;2022-07-23T10:09:12;101102.50;;;25.98;40.72
50854;BME280;44154;45.506;-122.806;2022-07-23T10:11:39;101083.78;;;25.90;40.38
50854;BME280;44154;45.506;-122.806;2022-07-23T10:14:05;101090.97;;;25.96;40.80
50854;BME280;44154;45.506;-122.806;2022-07-23T10:16:32;101099.19;;;25.96;40.61
50854;BME280;44154;45.506;-122.806;2022-07-23T10:18:58;101084.31;;;25.87;40.64
50854;BME280;44154;45.506;-122.806;2022-07-23T10:21:37;101100.28;;;25.95;40.77
50854;BME280;44154;45.506;-122.806;2022-07-23T10:27:30;101092.00;;;25.90;40.43
50854;BME280;44154;45.506;-122.806;2022-07-23T10:36:16;101097.50;;;25.90;40.64
50854;BME280;44154;45.506;-122.806;2022-07-23T10:41:34;101066.19;;;25.64;40.47
50854;BME280;44154;45.506;-122.806;2022-07-23T10:44:21;101106.25;;;25.87;40.34
50854;BME280;44154;45.506;-122.806;2022-07-23T10:46:58;101103.50;;;25.87;40.59
50854;BME280;44154;45.506;-122.806;2022-07-23T10:49:44;101104.25;;;25.83;40.51
50854;BME280;44154;45.506;-122.806;2022-07-23T10:52:20;101090.16;;;25.74;40.50
50854;BME280;44154;45.506;-122.806;2022-07-23T10:57:50;101107.84;;;25.83;40.29
50854;BME280;44154;45.506;-122.806;2022-07-23T11:00:24;101098.97;;;25.76;40.63
50854;BME280;44154;45.506;-122.806;2022-07-23T11:02:52;101106.09;;;25.77;40.43
50854;BME280;44154;45.506;-122.806;2022-07-23T11:05:22;101109.41;;;25.79;40.56
50854;BME280;44154;45.506;-122.806;2022-07-23T11:10:44;101111.56;;;25.77;40.28
50854;BME280;44154;45.506;-122.806;2022-07-23T11:13:41;101121.16;;;25.74;40.48
50854;BME280;44154;45.506;-122.806;2022-07-23T11:16:16;101121.16;;;25.74;40.43
50854;BME280;44154;45.506;-122.806;2022-07-23T11:24:00;101110.38;;;25.68;40.34
50854;BME280;44154;45.506;-122.806;2022-07-23T11:32:08;101123.56;;;25.71;40.44
50854;BME280;44154;45.506;-122.806;2022-07-23T11:34:45;101121.91;;;25.70;40.51
50854;BME280;44154;45.506;-122.806;2022-07-23T11:37:49;101119.69;;;25.67;40.33
50854;BME280;44154;45.506;-122.806;2022-07-23T11:40:20;101115.03;;;25.67;40.68
50854;BME280;44154;45.506;-122.806;2022-07-23T11:43:04;101116.94;;;25.67;40.51
50854;BME280;44154;45.506;-122.806;2022-07-23T11:45:37;101113.81;;;25.58;40.63
50854;BME280;44154;45.506;-122.806;2022-07-23T11:48:05;101122.94;;;25.63;40.58
50854;BME280;44154;45.506;-122.806;2022-07-23T11:50:31;101107.19;;;25.54;40.33
50854;BME280;44154;45.506;-122.806;2022-07-23T11:52:58;101111.41;;;25.61;40.52
50854;BME280;44154;45.506;-122.806;2022-07-23T11:55:24;101106.38;;;25.53;40.77
50854;BME280;44154;45.506;-122.806;2022-07-23T11:57:52;101118.78;;;25.61;40.56
50854;BME280;44154;45.506;-122.806;2022-07-23T12:00:21;101128.94;;;25.60;40.38
50854;BME280;44154;45.506;-122.806;2022-07-23T12:03:02;101127.25;;;25.59;40.52
50854;BME280;44154;45.506;-122.806;2022-07-23T12:05:32;101122.28;;;25.56;40.26
50854;BME280;44154;45.506;-122.806;2022-07-23T12:08:00;101120.63;;;25.55;40.36
50854;BME280;44154;45.506;-122.806;2022-07-23T12:10:34;101138.19;;;25.54;40.47
50854;BME280;44154;45.506;-122.806;2022-07-23T12:13:02;101121.72;;;25.54;40.72
50854;BME280;44154;45.506;-122.806;2022-07-23T12:15:38;101130.22;;;25.53;40.45
50854;BME280;44154;45.506;-122.806;2022-07-23T12:18:07;101132.09;;;25.52;40.41
50854;BME280;44154;45.506;-122.806;2022-07-23T12:20:38;101118.78;;;25.39;40.33
50854;BME280;44154;45.506;-122.806;2022-07-23T12:23:07;101128.16;;;25.43;40.36
50854;BME280;44154;45.506;-122.806;2022-07-23T12:25:39;101140.28;;;25.47;40.58
50854;BME280;44154;45.506;-122.806;2022-07-23T12:28:11;101137.28;;;25.49;40.41
50854;BME280;44154;45.506;-122.806;2022-07-23T12:30:48;101126.47;;;25.42;40.44
50854;BME280;44154;45.506;-122.806;2022-07-23T12:33:28;101140.00;;;25.49;40.46
50854;BME280;44154;45.506;-122.806;2022-07-23T12:35:58;101130.63;;;25.44;40.44
50854;BME280;44154;45.506;-122.806;2022-07-23T12:38:27;101099.59;;;25.22;40.51
50854;BME280;44154;45.506;-122.806;2022-07-23T12:40:56;101132.47;;;25.39;40.57
50854;BME280;44154;45.506;-122.806;2022-07-23T12:45:54;101130.13;;;25.31;40.30
50854;BME280;44154;45.506;-122.806;2022-07-23T12:48:30;101152.22;;;25.41;40.60
50854;BME280;44154;45.506;-122.806;2022-07-23T12:51:00;101148.66;;;25.40;40.38
50854;BME280;44154;45.506;-122.806;2022-07-23T12:58:40;101144.44;;;25.33;40.51
50854;BME280;44154;45.506;-122.806;2022-07-23T13:01:07;101156.56;;;25.37;40.38
50854;BME280;44154;45.506;-122.806;2022-07-23T13:03:37;101164.19;;;25.35;40.36
50854;BME280;44154;45.506;-122.806;2022-07-23T13:06:06;101163.63;;;25.33;40.35
50854;BME280;44154;45.506;-122.806;2022-07-23T13:08:33;101149.25;;;25.25;40.28
50854;BME280;44154;45.506;-122.806;2022-07-23T13:11:00;101164.69;;;25.32;40.65
50854;BME280;44154;45.506;-122.806;2022-07-23T13:13:29;101168.47;;;25.31;40.50
50854;BME280;44154;45.506;-122.806;2022-07-23T13:15:57;101171.47;;;25.29;40.52